John H Macmillan Jr — WDB9907 — position and weather

sailwx.info

Track history (hours):
 
Tides and Currents Weather Stations Pressure Air Temp Water Temp Dewpoint Dewpoint Depression Visibility Wind Speed Wind Dir Waves Ship Positions

John H Macmillan Jr

Owner: American River Transportation Company, St Louis, MO. More information available from US FCC via Universal Licensing System and Coast Guard Vessel Documentation Center.

Last reported at 2016-Jul-27 23:12 UTC. Time now 2016-Jul-29 14:01 UTC.
Position N 31°59' W 091°06'.

Length 55 m.

Type: Towing. MMSI: 366984920.

Date/timePositionNaut miles runAvg speedWind from/ knotsBaromVisibWave heightAir tempDewpointWater temp
2016-Jul-27 23:12N 31°59' W 091°06'9 5.2
2016-Jul-27 21:33N 32°08' W 091°05'5 5.4
2016-Jul-27 20:33N 32°11' W 090°60'7 7.3
2016-Jul-27 19:33N 32°17' W 090°56'3 3.5
2016-Jul-27 18:34N 32°21' W 090°56'1 1.0
2016-Jul-27 17:34N 32°21' W 090°57'0 0.0
2016-Jul-27 16:34N 32°21' W 090°57'0 0.1
2016-Jul-27 15:34N 32°21' W 090°57'5 4.9
2016-Jul-27 14:33N 32°25' W 091°00'7 7.0
2016-Jul-27 13:33N 32°29' W 091°07'7 6.6
2016-Jul-27 12:33N 32°36' W 091°08'  
Track history (hours):
 
Tides and Currents Weather Stations Pressure Air Temp Water Temp Dewpoint Dewpoint Depression Visibility Wind Speed Wind Dir Waves Ship Positions

John H Macmillan Jr

Owner: American River Transportation Company, St Louis, MO. More information available from US FCC via Universal Licensing System and Coast Guard Vessel Documentation Center.

Last reported at 2016-Jul-27 23:12 UTC. Time now 2016-Jul-29 14:01 UTC.
Position N 31°59' W 091°06'.

Length 55 m.

Type: Towing. MMSI: 366984920.

Date/timePositionNaut miles runAvg speedWind from/ knotsBaromVisibWave heightAir tempDewpointWater temp
2016-Jul-27 23:12N 31°59' W 091°06'9 5.2
2016-Jul-27 21:33N 32°08' W 091°05'5 5.4
2016-Jul-27 20:33N 32°11' W 090°60'7 7.3
2016-Jul-27 19:33N 32°17' W 090°56'3 3.5
2016-Jul-27 18:34N 32°21' W 090°56'1 1.0
2016-Jul-27 17:34N 32°21' W 090°57'0 0.0
2016-Jul-27 16:34N 32°21' W 090°57'0 0.1
2016-Jul-27 15:34N 32°21' W 090°57'5 4.9
2016-Jul-27 14:33N 32°25' W 091°00'7 7.0
2016-Jul-27 13:33N 32°29' W 091°07'7 6.6
2016-Jul-27 12:33N 32°36' W 091°08'  

Dump ship's entire track history